Waterkloof Air Force Base Airport

Airport
ICAO code: 
FAWK
Summary
ICAO Region: 
AFI
Territory: 
Location: 
, Gauteng
Serving: 
Waterkloof
Elevation: 
4940 ft
Coordinates: 
Aerial View: 
25° 49' 48" S, 28° 13' 21" E
Metar
Observation
FAWK 210400Z AUTO 17002KT //// // ////// 13/12 Q1024
Station
Waterkloof (SAAF)
Date/Time
2022-01-21 04:00:00
Wind direction
170°
Wind speed
02 kts
Lowest cloud amount
n/a
Temperature
13°C
Dew point
12°C
Humidity
93%
QNH
1024 hPa
Weather condition
n/a

Runways

Designator Length Width Surface Rops
6/24 1920 45 ASP No/No
1/19 3353 45 ASP No/No
Airport map: 
Aerial View: 

SKYbrary Partners:

Safety knowledge contributed by: